Time;durP1;ratioP1;P1;durP2;ratioP2;P2;SDS_P1;SDS_P2;PMS_P1;PMS_P2;Temp;Humidity;BMP_temperature;BMP_pressure;BME280_temperature;BME280_humidity;BME280_pressure;Samples;Min_cycle;Max_cycle;Signal;HPM_P1;HPM_P2
2022/01/08 00:02:21;;;;;;;6.70;3.03;;;2.30;99.90;;;;;;4961180;28;20031;-80
2022/01/08 00:04:46;;;;;;;6.90;3.80;;;2.30;99.90;;;;;;4959904;28;20029;-80
2022/01/08 00:07:12;;;;;;;3.72;2.80;;;2.30;99.90;;;;;;4960348;28;20067;-80
2022/01/08 00:09:37;;;;;;;4.00;2.85;;;2.30;99.90;;;;;;4960309;28;20034;-80
2022/01/08 00:12:03;;;;;;;3.75;2.92;;;2.30;99.90;;;;;;4959406;28;20035;-80
2022/01/08 00:14:29;;;;;;;6.78;3.72;;;2.40;99.90;;;;;;4960676;28;20027;-79
2022/01/08 00:16:55;;;;;;;5.35;4.28;;;2.40;99.90;;;;;;4959695;28;20031;-80
2022/01/08 00:19:20;;;;;;;3.40;2.63;;;2.40;99.90;;;;;;4958726;28;20365;-80
2022/01/08 00:21:46;;;;;;;3.15;2.05;;;2.40;99.90;;;;;;4959023;28;20559;-80
2022/01/08 00:24:11;;;;;;;3.58;2.80;;;2.30;99.90;;;;;;4959423;28;20105;-80
2022/01/08 00:26:37;;;;;;;2.92;2.50;;;2.40;99.90;;;;;;4958661;28;20027;-80
2022/01/08 00:29:03;;;;;;;3.03;2.40;;;2.40;99.90;;;;;;4957445;28;20480;-80
2022/01/08 00:31:29;;;;;;;3.88;3.00;;;2.50;99.90;;;;;;4959192;28;20308;-80
2022/01/08 00:33:55;;;;;;;3.22;1.90;;;2.50;99.90;;;;;;4957810;28;20178;-80
2022/01/08 00:36:20;;;;;;;3.50;2.65;;;2.60;99.90;;;;;;4958067;28;20031;-80
2022/01/08 00:38:45;;;;;;;;;;;2.60;99.90;;;;;;4959784;28;20031;-80
2022/01/08 00:41:11;;;;;;;3.55;1.70;;;2.60;99.90;;;;;;4959185;28;19910;-80
2022/01/08 00:43:37;;;;;;;3.47;2.78;;;2.60;99.90;;;;;;4959070;28;20058;-79
2022/01/08 00:46:02;;;;;;;;;;;2.60;99.90;;;;;;4960131;28;20046;-80
2022/01/08 00:48:28;;;;;;;4.03;2.72;;;2.60;99.90;;;;;;4959525;28;19914;-79
2022/01/08 00:50:54;;;;;;;4.18;2.88;;;2.70;99.90;;;;;;4959000;28;20069;-80
2022/01/08 00:53:20;;;;;;;4.47;2.72;;;2.70;99.90;;;;;;4960654;28;20034;-80
2022/01/08 00:55:46;;;;;;;4.13;3.00;;;2.70;99.90;;;;;;4960009;28;20025;-80
2022/01/08 00:58:11;;;;;;;4.80;3.85;;;2.70;99.90;;;;;;4958299;28;20107;-80
2022/01/08 01:00:37;;;;;;;4.88;3.08;;;2.70;99.90;;;;;;4958787;28;20034;-79
2022/01/08 01:03:03;;;;;;;;;;;2.70;99.90;;;;;;4957041;28;20039;-79
2022/01/08 01:05:29;;;;;;;5.00;3.75;;;2.70;99.90;;;;;;4959599;28;19914;-79
2022/01/08 01:07:54;;;;;;;5.28;3.35;;;2.70;99.90;;;;;;4960231;28;20149;-79
2022/01/08 01:10:20;;;;;;;4.88;3.50;;;2.70;99.90;;;;;;4958495;28;20106;-80
2022/01/08 01:12:46;;;;;;;6.90;3.28;;;2.70;99.90;;;;;;4958464;28;20023;-80
2022/01/08 01:15:14;;;;;;;5.05;3.20;;;2.60;99.90;;;;;;4957582;28;20074;-80
2022/01/08 01:17:41;;;;;;;3.90;2.83;;;2.70;99.90;;;;;;4960074;28;20109;-80
2022/01/08 01:20:09;;;;;;;4.40;3.28;;;2.70;99.90;;;;;;4958500;28;20194;-78
2022/01/08 01:25:36;;;;;;;4.53;2.63;;;2.70;99.90;;;;;;4958871;28;20043;-79
2022/01/08 01:47:03;;;;;;;4.20;2.42;;;2.40;99.90;;;;;;4960189;28;20670;-79
2022/01/08 01:49:35;;;;;;;3.45;2.03;;;2.30;99.90;;;;;;4959437;28;20112;-79
2022/01/08 01:52:03;;;;;;;3.97;2.90;;;2.30;99.90;;;;;;4958378;28;20585;-80
2022/01/08 01:54:30;;;;;;;4.80;3.13;;;2.30;99.90;;;;;;4958706;28;20106;-81
2022/01/08 01:56:57;;;;;;;4.68;3.22;;;2.30;99.90;;;;;;4958384;28;20066;-81
2022/01/08 01:59:24;;;;;;;3.95;3.10;;;2.30;99.90;;;;;;4958297;28;20035;-78
2022/01/08 02:01:50;;;;;;;3.75;3.28;;;2.30;99.90;;;;;;4958345;28;20553;-78
2022/01/08 02:04:15;;;;;;;4.47;2.38;;;2.40;99.90;;;;;;4957746;28;20046;-79
2022/01/08 02:06:41;;;;;;;3.28;1.98;;;2.40;99.90;;;;;;4959257;28;20039;-78
2022/01/08 02:09:06;;;;;;;2.90;2.60;;;2.50;99.90;;;;;;4972637;28;20418;-78
2022/01/08 02:11:32;;;;;;;4.22;3.50;;;2.50;99.90;;;;;;4957955;28;20173;-79
2022/01/08 02:14:02;;;;;;;4.60;3.15;;;2.50;99.90;;;;;;4957958;28;20031;-79
2022/01/08 02:16:27;;;;;;;3.60;2.42;;;2.50;99.90;;;;;;4957867;28;20118;-79
2022/01/08 02:18:53;;;;;;;6.13;3.05;;;2.50;99.90;;;;;;4956321;28;20046;-79
2022/01/08 02:21:18;;;;;;;4.35;3.03;;;2.50;99.90;;;;;;4959268;28;20404;-79
2022/01/08 02:23:44;;;;;;;5.28;4.00;;;2.50;99.90;;;;;;4958650;28;20057;-79
2022/01/08 02:26:11;;;;;;;4.13;2.95;;;2.50;99.90;;;;;;4958244;28;20033;-79
2022/01/08 02:28:38;;;;;;;4.53;3.35;;;2.60;99.90;;;;;;4956948;28;20097;-79
2022/01/08 02:31:04;;;;;;;6.38;4.22;;;2.60;99.90;;;;;;4958202;28;20035;-79
2022/01/08 02:33:30;;;;;;;;;;;2.60;99.90;;;;;;4959418;28;20037;-79
2022/01/08 02:35:56;;;;;;;3.85;2.42;;;2.60;99.90;;;;;;4956631;28;19918;-79
2022/01/08 02:38:22;;;;;;;;;;;2.70;99.90;;;;;;4958384;28;20049;-79
2022/01/08 02:40:56;;;;;;;4.28;2.50;;;2.60;99.90;;;;;;4957630;28;19911;-79
2022/01/08 02:43:23;;;;;;;4.90;3.28;;;2.60;99.90;;;;;;4957328;28;20462;-79
2022/01/08 02:45:48;;;;;;;5.18;3.92;;;2.50;99.90;;;;;;4957892;28;20113;-79
2022/01/08 02:48:14;;;;;;;4.82;3.97;;;2.40;99.90;;;;;;4958314;28;20027;-79
2022/01/08 02:50:39;;;;;;;7.65;3.70;;;2.40;99.90;;;;;;4957356;28;20066;-79
2022/01/08 02:53:05;;;;;;;8.65;3.85;;;2.30;99.90;;;;;;4957901;28;20018;-79
2022/01/08 02:55:30;;;;;;;5.32;3.95;;;2.30;99.90;;;;;;4961366;28;20486;-79
2022/01/08 02:57:56;;;;;;;3.97;3.47;;;2.40;99.90;;;;;;4961088;28;20019;-79
2022/01/08 03:00:21;;;;;;;8.68;3.40;;;2.30;99.90;;;;;;4961489;28;20027;-79
2022/01/08 03:02:49;;;;;;;8.15;3.00;;;2.30;99.90;;;;;;4961181;28;20089;-80
2022/01/08 03:05:16;;;;;;;6.97;3.67;;;2.30;99.90;;;;;;4961458;28;20093;-80
2022/01/08 03:07:43;;;;;;;4.22;3.28;;;2.30;99.90;;;;;;4962147;28;20491;-79
2022/01/08 03:10:15;;;;;;;5.35;3.20;;;2.30;99.90;;;;;;4961438;28;20035;-79
2022/01/08 03:12:42;;;;;;;4.80;3.38;;;2.30;99.90;;;;;;4962541;28;20019;-79
2022/01/08 03:15:19;;;;;;;5.93;4.30;;;2.40;99.90;;;;;;4961320;28;20034;-79
2022/01/08 03:17:45;;;;;;;5.38;3.58;;;2.40;99.90;;;;;;4961572;28;20403;-79
2022/01/08 03:20:13;;;;;;;7.18;4.70;;;2.40;99.90;;;;;;4961369;28;20069;-79
2022/01/08 03:22:42;;;;;;;5.68;3.42;;;2.50;99.90;;;;;;4962213;28;20493;-79
2022/01/08 03:25:09;;;;;;;5.65;4.47;;;2.40;99.90;;;;;;4961768;28;20138;-79
2022/01/08 03:27:35;;;;;;;4.38;3.17;;;2.50;99.90;;;;;;4960586;28;20034;-79
2022/01/08 03:30:01;;;;;;;5.05;3.65;;;2.50;99.90;;;;;;4962067;28;20039;-79
2022/01/08 03:32:27;;;;;;;4.60;3.15;;;2.40;99.90;;;;;;4960531;28;20062;-79
2022/01/08 03:34:53;;;;;;;4.38;3.30;;;2.40;99.90;;;;;;4961973;28;20059;-79
2022/01/08 03:37:18;;;;;;;8.48;5.00;;;2.40;99.90;;;;;;4961604;28;20042;-79
2022/01/08 03:39:44;;;;;;;13.75;7.60;;;2.30;99.90;;;;;;4962543;28;20023;-79
2022/01/08 03:42:10;;;;;;;10.65;5.97;;;2.40;99.90;;;;;;4959774;28;20229;-79
2022/01/08 03:44:36;;;;;;;16.08;9.23;;;2.40;99.90;;;;;;4961794;28;20034;-79
2022/01/08 03:49:46;;;;;;;16.33;7.95;;;2.50;99.90;;;;;;4961997;28;20042;-79
2022/01/08 03:52:12;;;;;;;12.30;6.40;;;2.50;99.90;;;;;;4960942;28;20026;-80
2022/01/08 03:54:38;;;;;;;;;;;2.50;99.90;;;;;;4962734;28;20019;-80
2022/01/08 03:57:04;;;;;;;9.38;6.07;;;2.50;99.90;;;;;;4960069;28;20370;-79
2022/01/08 03:59:30;;;;;;;8.85;5.30;;;2.50;99.90;;;;;;4960686;28;20049;-79
2022/01/08 04:01:56;;;;;;;15.73;6.82;;;2.60;99.90;;;;;;4960156;28;20049;-79
2022/01/08 04:04:21;;;;;;;8.77;7.30;;;2.60;99.90;;;;;;4961648;28;20031;-79
2022/01/08 04:06:47;;;;;;;8.30;5.13;;;2.60;99.90;;;;;;4960720;28;20106;-79
2022/01/08 04:09:13;;;;;;;8.18;5.57;;;2.60;99.90;;;;;;4960859;28;20480;-79
2022/01/08 04:11:38;;;;;;;8.05;5.28;;;2.70;99.90;;;;;;4961886;28;20506;-79
2022/01/08 04:14:04;;;;;;;7.30;5.07;;;2.70;99.90;;;;;;4958518;28;20026;-78
2022/01/08 04:16:33;;;;;;;8.25;5.10;;;2.70;99.90;;;;;;4961432;28;20035;-79
2022/01/08 04:18:58;;;;;;;7.55;5.13;;;2.80;99.90;;;;;;4960769;28;20077;-79
2022/01/08 04:24:03;;;;;;;7.32;5.35;;;2.80;99.90;;;;;;4961141;28;20042;-79
2022/01/08 04:26:28;;;;;;;7.35;5.30;;;2.80;99.90;;;;;;4960747;28;20042;-79
2022/01/08 04:28:54;;;;;;;6.63;5.45;;;2.80;99.90;;;;;;4959730;28;20030;-79
2022/01/08 04:31:21;;;;;;;10.77;5.45;;;2.90;99.90;;;;;;4961253;28;20824;-79
2022/01/08 04:33:46;;;;;;;6.82;5.22;;;2.90;99.90;;;;;;4960681;28;20456;-79
2022/01/08 04:36:12;;;;;;;7.80;6.38;;;2.90;99.90;;;;;;4959614;28;20031;-80
2022/01/08 04:38:37;;;;;;;8.45;6.35;;;2.90;99.90;;;;;;4960329;28;20015;-79
2022/01/08 04:41:03;;;;;;;9.65;5.45;;;2.90;99.90;;;;;;4959532;28;20031;-79
2022/01/08 04:43:29;;;;;;;8.30;6.25;;;2.90;99.90;;;;;;4958447;28;20498;-79
2022/01/08 04:45:55;;;;;;;10.38;5.88;;;3.00;99.90;;;;;;4959900;28;20031;-80
2022/01/08 04:48:20;;;;;;;11.18;6.05;;;3.00;99.90;;;;;;4958900;28;20507;-79
2022/01/08 04:50:46;;;;;;;6.28;5.10;;;3.00;99.90;;;;;;4960407;28;20031;-79
2022/01/08 04:53:11;;;;;;;7.32;4.65;;;3.00;99.90;;;;;;4959315;28;20031;-79
2022/01/08 04:55:38;;;;;;;8.07;6.25;;;3.00;99.90;;;;;;4959927;28;20028;-79
2022/01/08 04:58:05;;;;;;;13.07;5.13;;;3.00;99.90;;;;;;4958285;28;20068;-79
2022/01/08 05:00:31;;;;;;;7.60;5.57;;;3.00;99.90;;;;;;4960358;28;20534;-79
2022/01/08 05:02:56;;;;;;;6.75;5.72;;;3.00;99.90;;;;;;4960272;28;20545;-79
2022/01/08 05:05:22;;;;;;;9.00;6.55;;;3.00;99.90;;;;;;4959506;28;20050;-79
2022/01/08 05:07:47;;;;;;;10.07;6.00;;;3.00;99.90;;;;;;4959869;28;20033;-79
2022/01/08 05:10:13;;;;;;;9.70;4.78;;;3.00;99.90;;;;;;4958847;28;20480;-79
2022/01/08 05:12:39;;;;;;;15.13;7.65;;;3.00;99.90;;;;;;4958986;28;20031;-79
2022/01/08 05:15:06;;;;;;;10.13;6.93;;;3.00;99.90;;;;;;4957100;28;20061;-79
2022/01/08 05:17:35;;;;;;;9.30;6.07;;;3.00;99.90;;;;;;4958694;28;20019;-79
2022/01/08 05:20:03;;;;;;;12.18;6.65;;;3.00;99.90;;;;;;4959351;28;20037;-79
2022/01/08 05:22:39;;;;;;;12.88;7.15;;;3.00;99.90;;;;;;4959332;28;20031;-79
2022/01/08 05:25:05;;;;;;;10.15;6.00;;;3.00;99.90;;;;;;4959269;28;20118;-79
2022/01/08 05:27:30;;;;;;;8.93;5.60;;;3.00;99.90;;;;;;4958717;28;20126;-79
2022/01/08 05:29:56;;;;;;;10.45;5.65;;;3.00;99.90;;;;;;4959069;28;20031;-79
2022/01/08 05:32:21;;;;;;;16.00;7.30;;;3.00;99.90;;;;;;4963935;28;20123;-79
2022/01/08 05:34:49;;;;;;;11.52;6.95;;;3.00;99.90;;;;;;4958227;28;20023;-79
2022/01/08 05:37:16;;;;;;;11.52;6.72;;;3.00;99.90;;;;;;4959214;28;20304;-79
2022/01/08 05:39:42;;;;;;;11.38;7.22;;;3.00;99.90;;;;;;4959560;28;20023;-79
2022/01/08 05:42:07;;;;;;;11.88;6.65;;;3.00;99.90;;;;;;4958209;28;20700;-79
2022/01/08 05:44:33;;;;;;;11.57;6.97;;;3.00;99.90;;;;;;4959505;28;20034;-79
2022/01/08 05:46:59;;;;;;;11.00;6.85;;;3.10;99.90;;;;;;4959822;28;20026;-79
2022/01/08 05:49:25;;;;;;;10.07;7.10;;;3.10;99.90;;;;;;4959002;28;20104;-79
2022/01/08 05:51:50;;;;;;;12.55;7.20;;;3.00;99.90;;;;;;4960116;28;20070;-79
2022/01/08 05:54:16;;;;;;;13.57;7.68;;;3.00;99.90;;;;;;4964877;28;20050;-79
2022/01/08 05:56:41;;;;;;;13.10;8.43;;;3.10;99.90;;;;;;4979456;28;20074;-78
2022/01/08 05:59:07;;;;;;;10.88;7.72;;;3.10;99.90;;;;;;4961658;28;20042;-79
2022/01/08 06:01:34;;;;;;;18.15;9.45;;;3.10;99.90;;;;;;4976792;28;20015;-78
2022/01/08 06:04:00;;;;;;;11.02;7.43;;;3.10;99.90;;;;;;4979474;28;20083;-78
2022/01/08 06:06:25;;;;;;;13.32;7.82;;;3.00;99.90;;;;;;4981750;28;20034;-78
2022/01/08 06:08:51;;;;;;;14.52;8.32;;;3.00;99.90;;;;;;4981105;28;20028;-79
2022/01/08 06:11:16;;;;;;;;;;;3.00;99.90;;;;;;4980823;28;20049;-78
2022/01/08 06:13:42;;;;;;;15.70;6.90;;;3.00;99.90;;;;;;4981156;28;19902;-79
2022/01/08 06:16:07;;;;;;;14.10;8.32;;;3.00;99.90;;;;;;4979068;28;20047;-78
2022/01/08 06:18:33;;;;;;;10.82;7.95;;;3.00;99.90;;;;;;4978373;28;20022;-78
2022/01/08 06:20:59;;;;;;;11.43;7.45;;;3.00;99.90;;;;;;4979767;28;20505;-79
2022/01/08 06:23:27;;;;;;;14.40;9.07;;;3.00;99.90;;;;;;4959126;28;20508;-79
2022/01/08 06:25:52;;;;;;;12.60;8.35;;;3.00;99.90;;;;;;4958370;28;20493;-79
2022/01/08 06:28:18;;;;;;;12.55;9.45;;;3.00;99.90;;;;;;4958696;28;20027;-79
2022/01/08 06:30:43;;;;;;;16.65;8.63;;;3.00;99.90;;;;;;4962785;28;20045;-79
2022/01/08 06:33:09;;;;;;;;;;;3.00;99.90;;;;;;4961196;28;20023;-79
2022/01/08 06:35:34;;;;;;;16.05;8.43;;;3.00;99.90;;;;;;4964267;28;19920;-78
2022/01/08 06:38:00;;;;;;;;;;;3.00;99.90;;;;;;4963733;28;20063;-79
2022/01/08 06:40:25;;;;;;;22.55;10.02;;;3.00;99.90;;;;;;4963912;28;19965;-79
2022/01/08 06:42:51;;;;;;;25.65;9.23;;;3.00;99.90;;;;;;4962325;28;20111;-78
2022/01/08 06:45:16;;;;;;;;;;;2.90;99.90;;;;;;4965326;28;20155;-78
2022/01/08 06:47:45;;;;;;;34.08;10.30;;;3.00;99.90;;;;;;4965345;28;19910;-79
2022/01/08 06:50:11;;;;;;;23.60;10.57;;;2.90;99.90;;;;;;4961767;28;20027;-79
2022/01/08 06:52:37;;;;;;;16.23;9.48;;;2.90;99.90;;;;;;4961884;28;20227;-79
2022/01/08 06:55:03;;;;;;;23.27;10.13;;;2.90;99.90;;;;;;4961650;28;20091;-79
2022/01/08 06:57:28;;;;;;;;;;;2.90;99.90;;;;;;4961182;28;20082;-79
2022/01/08 06:59:54;;;;;;;20.30;9.65;;;2.90;99.90;;;;;;4961419;28;20326;-79
2022/01/08 07:02:19;;;;;;;18.80;10.00;;;2.90;99.90;;;;;;4961228;28;20101;-79
2022/01/08 07:04:45;;;;;;;18.90;10.00;;;2.90;99.90;;;;;;4961010;28;20034;-79
2022/01/08 07:07:10;;;;;;;18.17;9.82;;;2.90;99.90;;;;;;4961299;28;20050;-80
2022/01/08 07:09:36;;;;;;;23.00;11.15;;;2.90;99.90;;;;;;4961878;28;20121;-79
2022/01/08 07:12:01;;;;;;;14.38;9.07;;;2.90;99.90;;;;;;4959564;28;20166;-79
2022/01/08 07:14:27;;;;;;;20.15;10.25;;;2.90;99.90;;;;;;4961194;28;20656;-79
2022/01/08 07:16:54;;;;;;;24.30;11.93;;;2.90;99.90;;;;;;4975267;28;20097;-79
2022/01/08 07:19:20;;;;;;;31.85;12.80;;;2.90;99.90;;;;;;4961423;28;20042;-79
2022/01/08 07:21:46;;;;;;;18.75;10.73;;;2.90;99.90;;;;;;4961337;28;20056;-79
2022/01/08 07:24:11;;;;;;;18.95;10.95;;;2.90;99.90;;;;;;4960622;28;20539;-78
2022/01/08 07:26:36;;;;;;;;;;;2.90;99.90;;;;;;4959154;28;20038;-79
2022/01/08 07:29:02;;;;;;;16.35;9.95;;;2.90;99.90;;;;;;4960230;28;20008;-79
2022/01/08 07:31:28;;;;;;;18.85;9.60;;;3.00;99.90;;;;;;4961741;28;20423;-79
2022/01/08 07:33:53;;;;;;;26.67;11.40;;;3.00;99.90;;;;;;4961030;28;20043;-79
2022/01/08 07:36:20;;;;;;;21.02;11.65;;;3.00;99.90;;;;;;4962117;28;20115;-79
2022/01/08 07:38:47;;;;;;;27.55;11.57;;;2.90;99.90;;;;;;4959818;28;20059;-79
2022/01/08 07:41:13;;;;;;;20.90;10.98;;;2.90;99.90;;;;;;4961123;28;20031;-79
2022/01/08 07:43:39;;;;;;;20.15;11.68;;;2.90;99.90;;;;;;4960107;28;20593;-79
2022/01/08 07:46:05;;;;;;;24.98;12.40;;;2.90;99.90;;;;;;4960763;28;20446;-79
2022/01/08 07:48:30;;;;;;;19.48;11.32;;;2.90;99.90;;;;;;4961060;28;20555;-79
2022/01/08 07:50:56;;;;;;;15.60;10.73;;;2.90;99.90;;;;;;4961427;28;20065;-79
2022/01/08 07:53:21;;;;;;;22.50;10.88;;;3.00;99.90;;;;;;4959847;28;20219;-79
2022/01/08 07:55:47;;;;;;;20.95;12.00;;;3.00;99.90;;;;;;4959633;28;20027;-79
2022/01/08 07:58:13;;;;;;;27.33;16.40;;;3.00;99.90;;;;;;4958885;28;20058;-80
2022/01/08 08:00:38;;;;;;;19.60;11.82;;;3.20;99.90;;;;;;4956632;28;20529;-79
2022/01/08 08:03:04;;;;;;;21.67;12.43;;;3.90;99.90;;;;;;4956719;28;20037;-80
2022/01/08 08:05:32;;;;;;;20.95;11.02;;;3.90;99.90;;;;;;4959593;28;20057;-79
2022/01/08 08:07:58;;;;;;;24.80;10.20;;;3.70;99.90;;;;;;4958285;28;20038;-77
2022/01/08 08:10:25;;;;;;;25.92;10.50;;;3.60;99.90;;;;;;4956986;28;20440;-77
2022/01/08 08:12:53;;;;;;;16.80;11.18;;;3.40;99.90;;;;;;4958555;28;20028;-77
2022/01/08 08:15:20;;;;;;;23.85;10.27;;;3.30;99.90;;;;;;4956044;28;20031;-78
2022/01/08 08:17:45;;;;;;;28.40;12.05;;;3.30;99.90;;;;;;4957677;28;20412;-78
2022/01/08 08:20:12;;;;;;;17.23;10.25;;;3.20;99.90;;;;;;4956776;28;20157;-77
2022/01/08 08:22:37;;;;;;;;;;;3.20;99.90;;;;;;4956557;28;20035;-76
2022/01/08 08:25:03;;;;;;;16.67;9.63;;;3.20;99.90;;;;;;4957646;28;19997;-77
2022/01/08 08:27:29;;;;;;;;;;;3.30;99.90;;;;;;4958253;28;20066;-76
2022/01/08 08:29:55;;;;;;;21.20;10.52;;;3.20;99.90;;;;;;4956223;28;19961;-76
2022/01/08 08:32:20;;;;;;;18.65;9.55;;;3.30;99.90;;;;;;4957819;28;20442;-77
2022/01/08 08:34:46;;;;;;;16.92;8.32;;;3.30;99.90;;;;;;4959683;28;20125;-78
2022/01/08 08:37:12;;;;;;;13.55;9.02;;;3.20;99.90;;;;;;4958340;28;20031;-77
2022/01/08 08:39:38;;;;;;;16.67;8.60;;;3.20;99.90;;;;;;4956553;28;20041;-78
2022/01/08 08:42:03;;;;;;;18.27;9.73;;;3.10;99.90;;;;;;4955040;28;20062;-78
2022/01/08 08:44:29;;;;;;;15.75;9.32;;;3.00;99.90;;;;;;4958903;28;20031;-77
2022/01/08 08:46:54;;;;;;;18.10;8.73;;;2.90;99.90;;;;;;4957377;28;20054;-78
2022/01/08 08:49:20;;;;;;;16.05;8.88;;;2.90;99.90;;;;;;4958235;28;20065;-77
2022/01/08 08:51:45;;;;;;;13.05;8.32;;;2.90;99.90;;;;;;4958996;28;20031;-76
2022/01/08 08:54:11;;;;;;;17.98;9.30;;;2.80;99.90;;;;;;4958606;28;20034;-76
2022/01/08 08:56:38;;;;;;;;;;;2.80;99.90;;;;;;4959674;28;20015;-76
2022/01/08 08:59:04;;;;;;;16.40;8.98;;;2.80;99.90;;;;;;4957143;28;19914;-76
2022/01/08 09:01:29;;;;;;;18.45;9.20;;;2.90;99.90;;;;;;4955297;28;20299;-76
2022/01/08 09:03:55;;;;;;;16.98;8.48;;;2.90;99.90;;;;;;4958901;28;20066;-77
2022/01/08 09:06:21;;;;;;;17.70;9.02;;;2.90;99.90;;;;;;4958539;28;20131;-77
2022/01/08 09:08:46;;;;;;;;;;;3.00;99.90;;;;;;4958531;28;20238;-77
2022/01/08 09:11:11;;;;;;;24.85;9.27;;;3.00;99.90;;;;;;4958244;28;19925;-78
2022/01/08 09:13:37;;;;;;;18.23;9.10;;;3.00;99.90;;;;;;4957756;28;20019;-77
2022/01/08 09:16:03;;;;;;;20.05;8.23;;;3.00;99.90;;;;;;4957899;28;20126;-74
2022/01/08 09:18:29;;;;;;;19.30;9.88;;;3.00;99.90;;;;;;4957833;28;20034;-77
2022/01/08 09:20:54;;;;;;;18.27;8.88;;;3.10;99.90;;;;;;4958298;28;20061;-80
2022/01/08 09:23:20;;;;;;;21.23;10.45;;;3.10;99.90;;;;;;4957900;28;20130;-79
2022/01/08 09:25:46;;;;;;;21.52;11.27;;;3.10;99.90;;;;;;4956717;28;20198;-78
2022/01/08 09:28:11;;;;;;;14.93;8.40;;;3.20;99.90;;;;;;4957460;28;20121;-77
2022/01/08 09:30:37;;;;;;;19.45;9.18;;;3.20;99.90;;;;;;4958143;28;20030;-77
2022/01/08 09:33:02;;;;;;;14.63;8.82;;;3.30;99.90;;;;;;4957643;28;20078;-77
2022/01/08 09:35:28;;;;;;;18.02;9.15;;;3.30;99.90;;;;;;4958216;28;20034;-77
2022/01/08 09:37:54;;;;;;;21.55;10.02;;;3.30;99.90;;;;;;4957227;28;20031;-77
2022/01/08 09:40:21;;;;;;;16.48;8.45;;;3.30;99.90;;;;;;4957621;28;20053;-77
2022/01/08 09:42:49;;;;;;;24.27;8.57;;;3.40;99.90;;;;;;4955201;28;20027;-75
2022/01/08 09:45:15;;;;;;;15.50;9.25;;;3.40;99.90;;;;;;4955356;28;20141;-76
2022/01/08 09:47:41;;;;;;;;;;;3.40;99.90;;;;;;4958230;28;20030;-76
2022/01/08 09:50:07;;;;;;;19.35;8.25;;;3.40;99.90;;;;;;4957531;28;20363;-80
2022/01/08 09:52:33;;;;;;;;;;;3.50;99.90;;;;;;4957852;28;20030;-77
2022/01/08 09:54:58;;;;;;;20.02;9.75;;;3.50;99.90;;;;;;4957324;28;20433;-77
2022/01/08 09:57:24;;;;;;;23.90;10.50;;;3.50;99.90;;;;;;4955155;28;20034;-77
2022/01/08 09:59:50;;;;;;;16.60;10.43;;;3.60;99.90;;;;;;4957259;28;20472;-77
2022/01/08 10:02:21;;;;;;;16.90;9.38;;;3.60;99.90;;;;;;4955857;28;20514;-77
2022/01/08 10:04:46;;;;;;;32.25;9.85;;;3.70;99.90;;;;;;4956681;28;20030;-77
2022/01/08 10:07:16;;;;;;;25.95;9.68;;;3.80;99.90;;;;;;4955694;28;20031;-77
2022/01/08 10:10:04;;;;;;;21.55;8.77;;;3.80;99.90;;;;;;4957207;28;20038;-77
2022/01/08 10:12:38;;;;;;;17.65;8.77;;;3.80;99.90;;;;;;4956303;28;20158;-77
2022/01/08 10:17:48;;;;;;;14.75;8.57;;;3.90;99.90;;;;;;4940985;29;20117;-84
2022/01/08 10:20:32;;;;;;;22.73;8.60;;;3.90;99.90;;;;;;4939982;28;20456;-84
2022/01/08 10:23:19;;;;;;;22.08;11.77;;;3.90;99.90;;;;;;4939943;29;20106;-83
2022/01/08 10:25:55;;;;;;;12.93;8.40;;;4.00;99.90;;;;;;4939354;28;20023;-83
2022/01/08 10:28:48;;;;;;;32.47;14.45;;;4.00;99.90;;;;;;4938086;29;20046;-84
2022/01/08 10:31:29;;;;;;;21.50;9.77;;;4.00;99.90;;;;;;4939416;29;20234;-86
2022/01/08 10:34:00;;;;;;;18.40;10.35;;;4.10;99.90;;;;;;4940154;28;20035;-85
2022/01/08 10:36:31;;;;;;;22.77;11.23;;;4.10;99.90;;;;;;4939490;28;20171;-84
2022/01/08 10:38:58;;;;;;;14.48;9.02;;;4.10;99.90;;;;;;4939507;29;20439;-88
2022/01/08 10:41:25;;;;;;;19.35;8.18;;;4.10;99.90;;;;;;4939947;29;20118;-82
2022/01/08 10:44:27;;;;;;;18.70;9.93;;;4.20;99.90;;;;;;4937897;29;20036;-81
2022/01/08 10:47:03;;;;;;;14.73;9.15;;;4.20;99.90;;;;;;4883108;29;20084;-84
2022/01/08 10:49:37;;;;;;;15.75;9.23;;;4.30;99.90;;;;;;4932333;29;20051;-82
2022/01/08 10:52:04;;;;;;;15.52;8.98;;;4.40;99.90;;;;;;4938829;28;20031;-85
2022/01/08 10:54:32;;;;;;;19.60;10.18;;;4.40;99.90;;;;;;4939363;28;20527;-89
2022/01/08 10:57:01;;;;;;;22.58;8.50;;;4.40;99.90;;;;;;4938055;29;20139;-85
2022/01/08 10:59:29;;;;;;;24.85;9.85;;;4.50;99.90;;;;;;4938551;28;20377;-87
2022/01/08 11:02:08;;;;;;;20.33;8.65;;;4.50;99.90;;;;;;4944477;29;20039;-86
2022/01/08 11:04:39;;;;;;;22.95;8.98;;;4.60;99.90;;;;;;4938989;28;20122;-83
2022/01/08 11:07:17;;;;;;;16.58;8.32;;;4.60;99.90;;;;;;4938649;29;20035;-88
2022/01/08 11:09:44;;;;;;;23.05;10.00;;;4.60;99.90;;;;;;4940491;29;20063;-87
2022/01/08 11:12:14;;;;;;;25.75;9.68;;;4.60;99.90;;;;;;4938338;28;20027;-85
2022/01/08 11:17:20;;;;;;;14.98;7.97;;;4.60;99.90;;;;;;4943442;29;20041;-84
2022/01/08 11:19:48;;;;;;;20.33;7.72;;;4.70;99.90;;;;;;4944463;29;20508;-87
2022/01/08 11:22:16;;;;;;;16.73;7.85;;;4.70;99.90;;;;;;4945932;28;20514;-84
2022/01/08 11:25:15;;;;;;;16.23;7.93;;;4.80;99.90;;;;;;4944095;28;20027;-87
2022/01/08 11:28:01;;;;;;;31.25;9.63;;;4.80;99.90;;;;;;4941668;28;20058;-86
2022/01/08 11:30:30;;;;;;;18.15;8.50;;;4.90;99.90;;;;;;4943764;28;20553;-86
2022/01/08 11:33:00;;;;;;;20.70;7.70;;;4.90;99.90;;;;;;4943791;29;20373;-86
2022/01/08 11:35:26;;;;;;;18.23;7.63;;;5.00;99.90;;;;;;4942814;28;20424;-87
2022/01/08 11:37:56;;;;;;;17.27;7.53;;;5.00;99.90;;;;;;4944506;28;20051;-87
2022/01/08 11:40:25;;;;;;;16.40;8.98;;;4.90;99.90;;;;;;4943434;29;20023;-82
2022/01/08 11:42:51;;;;;;;16.52;6.47;;;4.90;99.90;;;;;;4941848;29;20027;-83
2022/01/08 11:45:22;;;;;;;17.70;7.57;;;4.90;99.90;;;;;;4943847;28;20559;-84
2022/01/08 11:47:51;;;;;;;23.38;7.65;;;5.00;99.90;;;;;;4942855;28;20119;-84
2022/01/08 11:50:22;;;;;;;17.17;7.68;;;5.10;99.90;;;;;;4942299;28;20087;-81
2022/01/08 11:53:10;;;;;;;13.73;7.43;;;5.00;99.90;;;;;;4943147;29;20043;-84
2022/01/08 11:55:36;;;;;;;18.80;9.07;;;5.00;99.90;;;;;;4942866;28;20503;-82
2022/01/08 11:58:40;;;;;;;;;;;5.10;99.90;;;;;;4942917;29;20050;-81
2022/01/08 12:01:11;;;;;;;15.40;7.95;;;5.10;99.90;;;;;;4909985;29;19911;-85
2022/01/08 12:03:40;;;;;;;16.73;7.32;;;5.10;99.90;;;;;;4908234;29;20153;-84
2022/01/08 12:06:32;;;;;;;18.27;7.45;;;5.10;99.90;;;;;;4926817;28;20044;-85
2022/01/08 12:09:24;;;;;;;14.68;7.28;;;5.20;99.90;;;;;;4939715;29;20044;-85
2022/01/08 12:11:56;;;;;;;22.92;8.88;;;5.20;99.90;;;;;;4940639;28;20071;-87
2022/01/08 12:14:23;;;;;;;20.48;8.55;;;5.10;99.90;;;;;;4943372;29;20056;-85
2022/01/08 12:16:54;;;;;;;18.77;8.48;;;5.10;99.90;;;;;;4943249;28;20031;-87
2022/01/08 12:19:34;;;;;;;18.15;9.95;;;5.10;99.90;;;;;;4942317;28;20024;-82
2022/01/08 12:22:20;;;;;;;16.27;8.82;;;5.10;99.90;;;;;;4939595;28;20032;-80
2022/01/08 12:24:54;;;;;;;11.93;7.32;;;5.10;99.90;;;;;;4940029;28;20484;-83
2022/01/08 12:27:35;;;;;;;16.02;8.57;;;5.10;99.90;;;;;;4940208;29;20171;-83
2022/01/08 12:30:15;;;;;;;15.60;8.43;;;5.20;99.90;;;;;;4939231;29;20066;-84
2022/01/08 12:32:46;;;;;;;15.13;7.78;;;5.20;99.90;;;;;;4941480;29;20044;-84
2022/01/08 12:35:22;;;;;;;18.50;9.80;;;5.20;99.90;;;;;;4943034;28;20023;-85
2022/01/08 12:37:50;;;;;;;;;;;5.30;99.90;;;;;;4943587;28;20045;-85
2022/01/08 12:40:45;;;;;;;20.98;9.23;;;5.30;99.90;;;;;;4940504;29;19922;-82
2022/01/08 12:43:30;;;;;;;26.30;10.25;;;5.30;99.90;;;;;;4938920;29;20098;-80
2022/01/08 12:46:24;;;;;;;18.80;9.70;;;5.40;99.90;;;;;;4938854;29;20493;-82
2022/01/08 12:49:12;;;;;;;16.67;7.80;;;5.40;99.90;;;;;;4939425;29;20027;-83
2022/01/08 12:52:04;;;;;;;16.88;8.70;;;5.40;99.90;;;;;;4940227;29;20504;-82
2022/01/08 12:54:30;;;;;;;20.83;8.65;;;5.30;99.90;;;;;;4933028;28;20039;-81
2022/01/08 12:56:58;;;;;;;16.05;7.93;;;5.20;99.90;;;;;;4938127;29;20059;-82
2022/01/08 12:59:39;;;;;;;16.63;8.35;;;5.20;99.90;;;;;;4938854;29;20758;-82
2022/01/08 13:02:08;;;;;;;17.73;7.80;;;5.20;99.90;;;;;;4939588;29;20053;-82
2022/01/08 13:04:35;;;;;;;20.75;8.30;;;5.20;99.90;;;;;;4939830;28;20031;-82
2022/01/08 13:07:01;;;;;;;20.30;8.27;;;5.20;99.90;;;;;;4939437;29;20035;-82
2022/01/08 13:09:27;;;;;;;14.68;7.80;;;5.20;99.90;;;;;;4938572;29;20020;-82
2022/01/08 13:11:52;;;;;;;12.90;6.85;;;5.20;99.90;;;;;;4939413;29;20035;-82
2022/01/08 13:14:22;;;;;;;16.65;7.60;;;5.30;99.90;;;;;;4939447;29;20669;-82
2022/01/08 13:16:49;;;;;;;14.32;7.10;;;5.30;99.90;;;;;;4940223;29;20036;-82
2022/01/08 13:19:24;;;;;;;14.98;7.53;;;5.30;99.90;;;;;;4940081;29;20023;-82
2022/01/08 13:21:58;;;;;;;16.80;6.03;;;5.20;99.90;;;;;;4939860;29;20025;-82
2022/01/08 13:24:40;;;;;;;15.27;7.32;;;5.20;99.90;;;;;;4939240;28;20267;-82
2022/01/08 13:27:08;;;;;;;15.23;7.03;;;5.20;99.90;;;;;;4938177;28;20067;-83
2022/01/08 13:29:35;;;;;;;13.63;5.75;;;5.20;99.90;;;;;;4939879;29;20046;-83
2022/01/08 13:32:09;;;;;;;12.90;5.90;;;5.20;99.90;;;;;;4939866;29;20365;-82
2022/01/08 13:34:41;;;;;;;9.73;4.88;;;5.20;99.90;;;;;;4941252;28;20054;-83